sensor_id;sensor_type;location;lat;lon;timestamp;pressure;altitude;pressure_sealevel;temperature;humidity
59190;BME280;50749;51.636;4.948;2023-02-22T00:00:22;101578.81;;;17.57;53.19
59190;BME280;50749;51.636;4.948;2023-02-22T00:05:45;101574.88;;;17.58;53.50
59190;BME280;50749;51.636;4.948;2023-02-22T00:08:15;101584.00;;;17.59;53.27
59190;BME280;50749;51.636;4.948;2023-02-22T00:10:43;101573.28;;;17.57;53.20
59190;BME280;50749;51.636;4.948;2023-02-22T00:13:10;101576.84;;;17.58;53.40
59190;BME280;50749;51.636;4.948;2023-02-22T00:15:38;101579.63;;;17.58;53.35
59190;BME280;50749;51.636;4.948;2023-02-22T00:18:06;101579.63;;;17.58;53.34
59190;BME280;50749;51.636;4.948;2023-02-22T00:20:35;101580.28;;;17.55;53.51
59190;BME280;50749;51.636;4.948;2023-02-22T00:23:05;101580.28;;;17.55;53.19
59190;BME280;50749;51.636;4.948;2023-02-22T00:25:32;101570.06;;;17.55;53.06
59190;BME280;50749;51.636;4.948;2023-02-22T00:27:58;101579.47;;;17.54;53.41
59190;BME280;50749;51.636;4.948;2023-02-22T00:30:27;101585.00;;;17.54;53.27
59190;BME280;50749;51.636;4.948;2023-02-22T00:32:55;101579.03;;;17.52;53.10
59190;BME280;50749;51.636;4.948;2023-02-22T00:35:24;101580.97;;;17.52;53.41
59190;BME280;50749;51.636;4.948;2023-02-22T00:37:51;101574.63;;;17.51;52.93
59190;BME280;50749;51.636;4.948;2023-02-22T00:40:21;101579.34;;;17.51;53.57
59190;BME280;50749;51.636;4.948;2023-02-22T00:42:47;101580.63;;;17.53;53.30
59190;BME280;50749;51.636;4.948;2023-02-22T00:45:18;101580.63;;;17.53;53.08
59190;BME280;50749;51.636;4.948;2023-02-22T00:47:45;101571.53;;;17.53;53.19
59190;BME280;50749;51.636;4.948;2023-02-22T00:50:12;101576.25;;;17.52;51.69
59190;BME280;50749;51.636;4.948;2023-02-22T00:52:38;101568.16;;;17.47;52.99
59190;BME280;50749;51.636;4.948;2023-02-22T00:55:06;101558.72;;;17.48;53.07
59190;BME280;50749;51.636;4.948;2023-02-22T00:57:33;101558.72;;;17.48;53.87
59190;BME280;50749;51.636;4.948;2023-02-22T01:00:06;101562.31;;;17.49;54.30
59190;BME280;50749;51.636;4.948;2023-02-22T01:02:40;101561.00;;;17.46;54.09
59190;BME280;50749;51.636;4.948;2023-02-22T01:05:08;101559.88;;;17.47;53.82
59190;BME280;50749;51.636;4.948;2023-02-22T01:07:34;101555.47;;;17.46;53.65
59190;BME280;50749;51.636;4.948;2023-02-22T01:10:01;101566.53;;;17.46;53.20
59190;BME280;50749;51.636;4.948;2023-02-22T01:12:28;101556.16;;;17.43;53.56
59190;BME280;50749;51.636;4.948;2023-02-22T01:14:54;101562.84;;;17.42;53.30
59190;BME280;50749;51.636;4.948;2023-02-22T01:17:24;101565.94;;;17.40;53.60
59190;BME280;50749;51.636;4.948;2023-02-22T01:19:51;101557.19;;;17.38;53.65
59190;BME280;50749;51.636;4.948;2023-02-22T01:22:18;101553.91;;;17.36;53.57
59190;BME280;50749;51.636;4.948;2023-02-22T01:24:44;101546.47;;;17.37;53.48
59190;BME280;50749;51.636;4.948;2023-02-22T01:27:10;101549.56;;;17.35;53.44
59190;BME280;50749;51.636;4.948;2023-02-22T01:29:37;101546.31;;;17.33;53.70
59190;BME280;50749;51.636;4.948;2023-02-22T01:32:04;101546.66;;;17.32;53.62
59190;BME280;50749;51.636;4.948;2023-02-22T01:34:31;101542.28;;;17.31;53.48
59190;BME280;50749;51.636;4.948;2023-02-22T01:36:58;101539.84;;;17.29;53.49
59190;BME280;50749;51.636;4.948;2023-02-22T01:39:24;101536.63;;;17.27;53.19
59190;BME280;50749;51.636;4.948;2023-02-22T01:41:50;101540.50;;;17.26;53.49
59190;BME280;50749;51.636;4.948;2023-02-22T01:46:54;101523.00;;;17.22;53.53
59190;BME280;50749;51.636;4.948;2023-02-22T01:49:21;101519.78;;;17.20;53.48
59190;BME280;50749;51.636;4.948;2023-02-22T01:51:50;101514.25;;;17.20;53.25
59190;BME280;50749;51.636;4.948;2023-02-22T01:54:19;101518.13;;;17.19;53.58
59190;BME280;50749;51.636;4.948;2023-02-22T01:56:53;101509.38;;;17.17;53.29
59190;BME280;50749;51.636;4.948;2023-02-22T01:59:22;101515.72;;;17.17;53.21
59190;BME280;50749;51.636;4.948;2023-02-22T02:01:48;101511.69;;;17.15;53.76
59190;BME280;50749;51.636;4.948;2023-02-22T02:04:19;101500.63;;;17.15;53.61
59190;BME280;50749;51.636;4.948;2023-02-22T02:06:51;101502.56;;;17.14;53.33
59190;BME280;50749;51.636;4.948;2023-02-22T02:11:58;101491.50;;;17.14;53.31
59190;BME280;50749;51.636;4.948;2023-02-22T02:14:25;101499.00;;;17.14;53.38
59190;BME280;50749;51.636;4.948;2023-02-22T02:16:52;101495.44;;;17.13;53.23
59190;BME280;50749;51.636;4.948;2023-02-22T02:35:46;101478.09;;;17.04;53.68
59190;BME280;50749;51.636;4.948;2023-02-22T02:38:29;101482.00;;;17.03;53.59
59190;BME280;50749;51.636;4.948;2023-02-22T02:41:09;101471.78;;;17.03;53.47
59190;BME280;50749;51.636;4.948;2023-02-22T02:46:17;101464.63;;;17.02;53.55
59190;BME280;50749;51.636;4.948;2023-02-22T02:49:12;101461.88;;;17.02;53.38
59190;BME280;50749;51.636;4.948;2023-02-22T02:51:44;101468.56;;;17.01;53.50
59190;BME280;50749;51.636;4.948;2023-02-22T02:54:13;101458.63;;;17.00;53.72
59190;BME280;50749;51.636;4.948;2023-02-22T02:56:40;101456.69;;;17.01;53.25
59190;BME280;50749;51.636;4.948;2023-02-22T02:59:28;101460.94;;;16.98;53.70
59190;BME280;50749;51.636;4.948;2023-02-22T03:13:28;101435.13;;;16.94;53.31
59190;BME280;50749;51.636;4.948;2023-02-22T03:16:15;101433.97;;;16.95;53.40
59190;BME280;50749;51.636;4.948;2023-02-22T03:18:56;101435.13;;;16.94;53.36
59190;BME280;50749;51.636;4.948;2023-02-22T03:24:05;101426.38;;;16.92;53.65
59190;BME280;50749;51.636;4.948;2023-02-22T03:26:40;101404.59;;;16.90;53.34
59190;BME280;50749;51.636;4.948;2023-02-22T03:29:08;101406.56;;;16.90;53.74
59190;BME280;50749;51.636;4.948;2023-02-22T03:31:40;101405.78;;;16.89;53.40
59190;BME280;50749;51.636;4.948;2023-02-22T03:34:14;101404.94;;;16.89;53.50
59190;BME280;50749;51.636;4.948;2023-02-22T03:36:51;101404.13;;;16.88;53.39
59190;BME280;50749;51.636;4.948;2023-02-22T03:39:22;101398.16;;;16.86;53.30
59190;BME280;50749;51.636;4.948;2023-02-22T03:42:12;101391.81;;;16.86;53.63
59190;BME280;50749;51.636;4.948;2023-02-22T03:44:40;101387.91;;;16.87;53.30
59190;BME280;50749;51.636;4.948;2023-02-22T03:47:14;101378.81;;;16.86;53.18
59190;BME280;50749;51.636;4.948;2023-02-22T03:49:48;101378.81;;;16.86;53.54
59190;BME280;50749;51.636;4.948;2023-02-22T03:52:15;101376.84;;;16.87;53.50
59190;BME280;50749;51.636;4.948;2023-02-22T03:54:42;101380.75;;;16.86;53.33
59190;BME280;50749;51.636;4.948;2023-02-22T03:57:16;101375.22;;;16.86;53.51
59190;BME280;50749;51.636;4.948;2023-02-22T03:59:45;101365.34;;;16.85;53.40
59190;BME280;50749;51.636;4.948;2023-02-22T04:02:11;101366.44;;;16.84;53.42
59190;BME280;50749;51.636;4.948;2023-02-22T04:04:37;101359.00;;;16.84;53.54
59190;BME280;50749;51.636;4.948;2023-02-22T04:07:02;101351.84;;;16.83;53.42
59190;BME280;50749;51.636;4.948;2023-02-22T04:09:29;101351.53;;;16.85;53.29
59190;BME280;50749;51.636;4.948;2023-02-22T04:11:54;101354.78;;;16.87;53.23
59190;BME280;50749;51.636;4.948;2023-02-22T04:14:20;101347.41;;;16.91;53.54
59190;BME280;50749;51.636;4.948;2023-02-22T04:16:46;101348.03;;;16.97;52.75
59190;BME280;50749;51.636;4.948;2023-02-22T04:19:12;101346.66;;;17.03;52.57
59190;BME280;50749;51.636;4.948;2023-02-22T04:21:37;101333.91;;;17.11;52.53
59190;BME280;50749;51.636;4.948;2023-02-22T04:24:04;101337.75;;;17.18;52.44
59190;BME280;50749;51.636;4.948;2023-02-22T04:26:29;101340.75;;;17.25;52.83
59190;BME280;50749;51.636;4.948;2023-02-22T04:28:55;101341.81;;;17.33;52.52
59190;BME280;50749;51.636;4.948;2023-02-22T04:31:21;101340.44;;;17.39;53.09
59190;BME280;50749;51.636;4.948;2023-02-22T04:33:47;101349.34;;;17.45;52.83
59190;BME280;50749;51.636;4.948;2023-02-22T04:36:13;101346.34;;;17.50;52.61
59190;BME280;50749;51.636;4.948;2023-02-22T04:38:41;101342.53;;;17.55;53.02
59190;BME280;50749;51.636;4.948;2023-02-22T04:41:07;101345.06;;;17.60;52.51
59190;BME280;50749;51.636;4.948;2023-02-22T04:43:33;101346.03;;;17.64;52.95
59190;BME280;50749;51.636;4.948;2023-02-22T04:45:59;101349.69;;;17.68;52.91
59190;BME280;50749;51.636;4.948;2023-02-22T04:48:25;101339.56;;;17.72;52.77
59190;BME280;50749;51.636;4.948;2023-02-22T04:50:50;101343.25;;;17.76;52.81
59190;BME280;50749;51.636;4.948;2023-02-22T04:53:16;101339.13;;;17.82;52.86
59190;BME280;50749;51.636;4.948;2023-02-22T04:55:42;101338.91;;;17.88;53.13
59190;BME280;50749;51.636;4.948;2023-02-22T04:58:08;101324.41;;;17.91;53.29
59190;BME280;50749;51.636;4.948;2023-02-22T05:00:34;101336.81;;;17.97;53.26
59190;BME280;50749;51.636;4.948;2023-02-22T05:03:00;101333.03;;;18.01;52.98
59190;BME280;50749;51.636;4.948;2023-02-22T05:05:25;101329.56;;;18.05;53.08
59190;BME280;50749;51.636;4.948;2023-02-22T05:07:52;101321.38;;;18.08;53.16
59190;BME280;50749;51.636;4.948;2023-02-22T05:10:18;101328.19;;;18.11;52.79
59190;BME280;50749;51.636;4.948;2023-02-22T05:12:44;101320.34;;;18.13;52.55
59190;BME280;50749;51.636;4.948;2023-02-22T05:15:15;101315.72;;;18.17;52.65
59190;BME280;50749;51.636;4.948;2023-02-22T05:17:41;101309.84;;;18.18;52.96
59190;BME280;50749;51.636;4.948;2023-02-22T05:20:09;101313.06;;;18.20;53.10
59190;BME280;50749;51.636;4.948;2023-02-22T05:22:41;101308.44;;;18.25;52.95
59190;BME280;50749;51.636;4.948;2023-02-22T05:25:07;101302.22;;;18.28;52.83
59190;BME280;50749;51.636;4.948;2023-02-22T05:27:36;101303.91;;;18.32;52.78
59190;BME280;50749;51.636;4.948;2023-02-22T05:30:02;101303.56;;;18.34;52.48
59190;BME280;50749;51.636;4.948;2023-02-22T05:32:28;101291.81;;;18.37;52.81
59190;BME280;50749;51.636;4.948;2023-02-22T05:34:54;101293.09;;;18.40;52.77
59190;BME280;50749;51.636;4.948;2023-02-22T05:37:20;101297.09;;;18.42;52.85
59190;BME280;50749;51.636;4.948;2023-02-22T05:39:45;101296.41;;;18.45;52.71
59190;BME280;50749;51.636;4.948;2023-02-22T05:42:11;101291.66;;;18.46;52.49
59190;BME280;50749;51.636;4.948;2023-02-22T05:44:37;101283.00;;;18.47;52.62
59190;BME280;50749;51.636;4.948;2023-02-22T05:47:03;101279.09;;;18.48;52.75
59190;BME280;50749;51.636;4.948;2023-02-22T05:49:28;101282.31;;;18.50;52.41
59190;BME280;50749;51.636;4.948;2023-02-22T05:51:55;101276.78;;;18.50;52.22
59190;BME280;50749;51.636;4.948;2023-02-22T05:54:24;101270.88;;;18.52;52.71
59190;BME280;50749;51.636;4.948;2023-02-22T05:56:50;101263.38;;;18.52;52.43
59190;BME280;50749;51.636;4.948;2023-02-22T05:59:16;101259.47;;;18.53;52.48
59190;BME280;50749;51.636;4.948;2023-02-22T06:01:42;101248.38;;;18.53;52.38
59190;BME280;50749;51.636;4.948;2023-02-22T06:04:08;101250.00;;;18.54;52.37
59190;BME280;50749;51.636;4.948;2023-02-22T06:06:34;101250.00;;;18.54;52.27
59190;BME280;50749;51.636;4.948;2023-02-22T06:08:59;101241.72;;;18.54;52.63
59190;BME280;50749;51.636;4.948;2023-02-22T06:11:25;101235.34;;;18.54;52.48
59190;BME280;50749;51.636;4.948;2023-02-22T06:13:52;101238.59;;;18.56;52.38
59190;BME280;50749;51.636;4.948;2023-02-22T06:16:19;101228.31;;;18.56;52.32
59190;BME280;50749;51.636;4.948;2023-02-22T06:18:46;101237.41;;;18.57;52.32
59190;BME280;50749;51.636;4.948;2023-02-22T06:21:12;101223.56;;;18.57;52.17
59190;BME280;50749;51.636;4.948;2023-02-22T06:23:38;101221.59;;;18.57;52.47
59190;BME280;50749;51.636;4.948;2023-02-22T06:26:04;101218.38;;;18.55;52.08
59190;BME280;50749;51.636;4.948;2023-02-22T06:28:30;101218.38;;;18.55;52.23
59190;BME280;50749;51.636;4.948;2023-02-22T06:30:56;101226.69;;;18.55;52.22
59190;BME280;50749;51.636;4.948;2023-02-22T06:33:21;101216.44;;;18.56;52.16
59190;BME280;50749;51.636;4.948;2023-02-22T06:35:47;101217.59;;;18.55;52.04
59190;BME280;50749;51.636;4.948;2023-02-22T06:38:20;101221.59;;;18.57;52.38
59190;BME280;50749;51.636;4.948;2023-02-22T06:40:46;101221.59;;;18.57;52.08
59190;BME280;50749;51.636;4.948;2023-02-22T06:43:12;101224.38;;;18.57;52.18
59190;BME280;50749;51.636;4.948;2023-02-22T06:45:38;101229.91;;;18.57;51.91
59190;BME280;50749;51.636;4.948;2023-02-22T06:48:04;101230.72;;;18.58;52.12
59190;BME280;50749;51.636;4.948;2023-02-22T06:50:30;101230.28;;;18.56;52.11
59190;BME280;50749;51.636;4.948;2023-02-22T06:52:56;101238.22;;;18.57;52.10
59190;BME280;50749;51.636;4.948;2023-02-22T06:55:28;101247.69;;;18.56;52.31
59190;BME280;50749;51.636;4.948;2023-02-22T06:57:54;101246.50;;;18.57;52.01
59190;BME280;50749;51.636;4.948;2023-02-22T07:00:22;101252.06;;;18.57;51.87
59190;BME280;50749;51.636;4.948;2023-02-22T07:02:50;101249.28;;;18.57;52.10
59190;BME280;50749;51.636;4.948;2023-02-22T07:05:18;101240.97;;;18.57;51.80
59190;BME280;50749;51.636;4.948;2023-02-22T07:07:45;101249.28;;;18.57;52.20
59190;BME280;50749;51.636;4.948;2023-02-22T07:10:24;101243.31;;;18.55;51.91
59190;BME280;50749;51.636;4.948;2023-02-22T07:12:50;101261.09;;;18.54;52.18
59190;BME280;50749;51.636;4.948;2023-02-22T07:15:18;101259.81;;;18.52;51.85
59190;BME280;50749;51.636;4.948;2023-02-22T07:17:46;101268.47;;;18.50;52.00
59190;BME280;50749;51.636;4.948;2023-02-22T07:20:12;101262.47;;;18.48;51.80
59190;BME280;50749;51.636;4.948;2023-02-22T07:22:38;101258.09;;;18.47;51.42
59190;BME280;50749;51.636;4.948;2023-02-22T07:25:06;101265.94;;;18.45;51.94
59190;BME280;50749;51.636;4.948;2023-02-22T07:27:39;101262.72;;;18.43;52.18
59190;BME280;50749;51.636;4.948;2023-02-22T07:30:22;101267.81;;;18.41;51.88
59190;BME280;50749;51.636;4.948;2023-02-22T07:32:53;101264.22;;;18.41;52.20
59190;BME280;50749;51.636;4.948;2023-02-22T07:35:31;101261.47;;;18.41;52.17
59190;BME280;50749;51.636;4.948;2023-02-22T07:37:57;101271.28;;;18.38;51.79
59190;BME280;50749;51.636;4.948;2023-02-22T07:40:25;101270.84;;;18.36;52.34
59190;BME280;50749;51.636;4.948;2023-02-22T07:45:19;101280.97;;;18.32;52.42
59190;BME280;50749;51.636;4.948;2023-02-22T07:47:45;101281.34;;;18.30;52.20
59190;BME280;50749;51.636;4.948;2023-02-22T07:50:14;101278.13;;;18.28;52.25
59190;BME280;50749;51.636;4.948;2023-02-22T07:52:46;101272.94;;;18.27;51.93
59190;BME280;50749;51.636;4.948;2023-02-22T07:55:18;101262.19;;;18.25;52.34
59190;BME280;50749;51.636;4.948;2023-02-22T07:57:48;101262.56;;;18.24;52.13
59190;BME280;50749;51.636;4.948;2023-02-22T08:00:20;101260.13;;;18.22;52.43
59190;BME280;50749;51.636;4.948;2023-02-22T08:02:46;101256.13;;;18.19;51.92
59190;BME280;50749;51.636;4.948;2023-02-22T08:05:13;101252.06;;;18.17;52.04
59190;BME280;50749;51.636;4.948;2023-02-22T08:07:39;101252.41;;;18.15;51.88
59190;BME280;50749;51.636;4.948;2023-02-22T08:10:07;101244.84;;;18.12;51.85
59190;BME280;50749;51.636;4.948;2023-02-22T08:12:33;101247.47;;;18.09;51.85
59190;BME280;50749;51.636;4.948;2023-02-22T08:15:05;101254.53;;;18.06;52.19
59190;BME280;50749;51.636;4.948;2023-02-22T08:17:31;101250.50;;;18.04;52.42
59190;BME280;50749;51.636;4.948;2023-02-22T08:19:57;101246.94;;;18.03;51.82
59190;BME280;50749;51.636;4.948;2023-02-22T08:22:23;101267.44;;;18.02;51.85
59190;BME280;50749;51.636;4.948;2023-02-22T08:24:49;101257.88;;;17.99;52.35
59190;BME280;50749;51.636;4.948;2023-02-22T08:27:26;101258.22;;;17.98;52.16
59190;BME280;50749;51.636;4.948;2023-02-22T08:29:52;101270.44;;;17.97;52.25
59190;BME280;50749;51.636;4.948;2023-02-22T08:32:18;101257.31;;;17.94;52.17
59190;BME280;50749;51.636;4.948;2023-02-22T08:34:45;101252.16;;;17.92;51.89
59190;BME280;50749;51.636;4.948;2023-02-22T08:37:11;101254.44;;;17.90;52.72
59190;BME280;50749;51.636;4.948;2023-02-22T08:39:37;101246.50;;;17.89;52.26
59190;BME280;50749;51.636;4.948;2023-02-22T08:42:02;101239.34;;;17.88;52.36
59190;BME280;50749;51.636;4.948;2023-02-22T08:44:28;101232.84;;;17.83;52.78
59190;BME280;50749;51.636;4.948;2023-02-22T08:46:54;101222.50;;;17.80;53.01
59190;BME280;50749;51.636;4.948;2023-02-22T08:49:20;101216.50;;;17.78;52.50
59190;BME280;50749;51.636;4.948;2023-02-22T08:51:46;101215.25;;;17.76;52.62
59190;BME280;50749;51.636;4.948;2023-02-22T08:54:12;101193.03;;;17.72;52.29
59190;BME280;50749;51.636;4.948;2023-02-22T08:56:38;101183.22;;;17.75;52.38
59190;BME280;50749;51.636;4.948;2023-02-22T08:59:04;101178.03;;;17.73;52.61
59190;BME280;50749;51.636;4.948;2023-02-22T09:01:30;101198.22;;;17.74;52.46
59190;BME280;50749;51.636;4.948;2023-02-22T09:03:57;101192.34;;;17.75;52.46
59190;BME280;50749;51.636;4.948;2023-02-22T09:06:23;101201.78;;;17.74;52.80
59190;BME280;50749;51.636;4.948;2023-02-22T09:08:49;101208.00;;;17.71;52.68
59190;BME280;50749;51.636;4.948;2023-02-22T09:11:14;101196.13;;;17.71;52.42
59190;BME280;50749;51.636;4.948;2023-02-22T09:13:40;101202.91;;;17.73;52.71
59190;BME280;50749;51.636;4.948;2023-02-22T09:16:06;101193.03;;;17.72;52.60
59190;BME280;50749;51.636;4.948;2023-02-22T09:18:32;101193.81;;;17.73;53.08
59190;BME280;50749;51.636;4.948;2023-02-22T09:20:58;101197.88;;;17.75;53.24
59190;BME280;50749;51.636;4.948;2023-02-22T09:23:24;101198.31;;;17.77;53.39
59190;BME280;50749;51.636;4.948;2023-02-22T09:25:50;101196.25;;;17.74;53.10
59190;BME280;50749;51.636;4.948;2023-02-22T09:28:16;101198.66;;;17.76;52.92
59190;BME280;50749;51.636;4.948;2023-02-22T09:30:43;101202.56;;;17.75;53.19
59190;BME280;50749;51.636;4.948;2023-02-22T09:33:11;101208.44;;;17.73;53.32
59190;BME280;50749;51.636;4.948;2023-02-22T09:35:38;101210.53;;;17.76;53.63
59190;BME280;50749;51.636;4.948;2023-02-22T09:38:08;101212.03;;;17.74;53.59
59190;BME280;50749;51.636;4.948;2023-02-22T09:40:36;101211.31;;;17.77;53.69
59190;BME280;50749;51.636;4.948;2023-02-22T09:48:23;101208.78;;;17.72;53.87
59190;BME280;50749;51.636;4.948;2023-02-22T09:50:52;101214.22;;;17.68;52.87
59190;BME280;50749;51.636;4.948;2023-02-22T09:53:27;101215.63;;;17.62;52.87
59190;BME280;50749;51.636;4.948;2023-02-22T09:56:04;101204.56;;;17.62;53.84
59190;BME280;50749;51.636;4.948;2023-02-22T09:58:34;101214.00;;;17.61;54.30
59190;BME280;50749;51.636;4.948;2023-02-22T10:04:09;101197.41;;;17.61;55.29
59190;BME280;50749;51.636;4.948;2023-02-22T10:06:38;101204.56;;;17.62;55.07
59190;BME280;50749;51.636;4.948;2023-02-22T10:09:08;101210.09;;;17.62;55.54
59190;BME280;50749;51.636;4.948;2023-02-22T10:11:57;101211.22;;;17.61;55.09
59190;BME280;50749;51.636;4.948;2023-02-22T10:27:55;101214.69;;;17.58;56.93
59190;BME280;50749;51.636;4.948;2023-02-22T10:30:26;101204.81;;;17.57;56.28
59190;BME280;50749;51.636;4.948;2023-02-22T10:33:02;101209.03;;;17.54;54.31
59190;BME280;50749;51.636;4.948;2023-02-22T10:35:34;101212.16;;;17.53;54.34
59190;BME280;50749;51.636;4.948;2023-02-22T10:38:20;101217.56;;;17.49;53.65
59190;BME280;50749;51.636;4.948;2023-02-22T10:40:52;101212.63;;;17.42;53.34
59190;BME280;50749;51.636;4.948;2023-02-22T10:43:19;101202.94;;;17.36;52.91
59190;BME280;50749;51.636;4.948;2023-02-22T10:45:45;101208.00;;;17.34;53.07
59190;BME280;50749;51.636;4.948;2023-02-22T10:48:15;101209.53;;;17.32;52.29
59190;BME280;50749;51.636;4.948;2023-02-22T10:50:44;101208.25;;;17.29;53.11
59190;BME280;50749;51.636;4.948;2023-02-22T10:53:11;101206.63;;;17.28;53.82
59190;BME280;50749;51.636;4.948;2023-02-22T10:58:41;101202.38;;;17.31;55.03
59190;BME280;50749;51.636;4.948;2023-02-22T11:03:58;101197.63;;;17.31;54.02
59190;BME280;50749;51.636;4.948;2023-02-22T11:06:25;101191.19;;;17.27;54.03
59190;BME280;50749;51.636;4.948;2023-02-22T11:09:03;101190.75;;;17.25;54.58
59190;BME280;50749;51.636;4.948;2023-02-22T11:11:30;101190.25;;;17.23;53.68
59190;BME280;50749;51.636;4.948;2023-02-22T11:13:56;101189.47;;;17.22;54.44
59190;BME280;50749;51.636;4.948;2023-02-22T11:16:34;101193.84;;;17.23;53.92
59190;BME280;50749;51.636;4.948;2023-02-22T11:21:29;101181.06;;;17.19;53.05
59190;BME280;50749;51.636;4.948;2023-02-22T11:24:02;101176.78;;;17.09;53.21
59190;BME280;50749;51.636;4.948;2023-02-22T11:26:39;101176.44;;;16.98;53.05
59190;BME280;50749;51.636;4.948;2023-02-22T11:29:32;101163.88;;;16.88;52.54
59190;BME280;50749;51.636;4.948;2023-02-22T11:32:03;101161.66;;;16.82;52.07
59190;BME280;50749;51.636;4.948;2023-02-22T11:34:39;101157.97;;;16.78;52.76
59190;BME280;50749;51.636;4.948;2023-02-22T11:37:37;101152.09;;;16.79;53.01
59190;BME280;50749;51.636;4.948;2023-02-22T11:40:22;101156.94;;;16.82;52.88
59190;BME280;50749;51.636;4.948;2023-02-22T11:43:05;101150.75;;;16.85;53.45
59190;BME280;50749;51.636;4.948;2023-02-22T11:45:32;101148.81;;;16.86;53.60
59190;BME280;50749;51.636;4.948;2023-02-22T11:48:01;101150.75;;;16.85;53.62
59190;BME280;50749;51.636;4.948;2023-02-22T11:50:38;101147.19;;;16.85;53.48
59190;BME280;50749;51.636;4.948;2023-02-22T11:53:28;101144.09;;;16.86;53.79
59190;BME280;50749;51.636;4.948;2023-02-22T11:56:11;101132.22;;;16.86;53.06
59190;BME280;50749;51.636;4.948;2023-02-22T12:10:03;101128.78;;;16.89;53.25
59190;BME280;50749;51.636;4.948;2023-02-22T12:21:08;101120.03;;;16.87;53.05
59190;BME280;50749;51.636;4.948;2023-02-22T12:26:16;101123.16;;;16.85;53.88
59190;BME280;50749;51.636;4.948;2023-02-22T12:28:52;101106.59;;;16.85;53.98
59190;BME280;50749;51.636;4.948;2023-02-22T12:37:08;101126.22;;;16.84;53.90
59190;BME280;50749;51.636;4.948;2023-02-22T12:39:42;101134.50;;;16.84;53.70
59190;BME280;50749;51.636;4.948;2023-02-22T12:42:15;101146.03;;;16.86;54.52
59190;BME280;50749;51.636;4.948;2023-02-22T12:44:45;101142.47;;;16.85;54.51
59190;BME280;50749;51.636;4.948;2023-02-22T12:47:22;101138.59;;;16.86;55.07
59190;BME280;50749;51.636;4.948;2023-02-22T12:49:58;101138.69;;;16.90;54.76
59190;BME280;50749;51.636;4.948;2023-02-22T12:57:55;101134.78;;;16.91;55.40
59190;BME280;50749;51.636;4.948;2023-02-22T13:00:43;101135.94;;;16.90;55.46
59190;BME280;50749;51.636;4.948;2023-02-22T13:14:39;101138.34;;;16.92;54.69
59190;BME280;50749;51.636;4.948;2023-02-22T13:20:10;101142.72;;;16.93;55.11
59190;BME280;50749;51.636;4.948;2023-02-22T13:30:48;101131.31;;;16.94;55.90
59190;BME280;50749;51.636;4.948;2023-02-22T13:33:51;101136.84;;;16.94;55.97
59190;BME280;50749;51.636;4.948;2023-02-22T13:44:57;101133.28;;;16.94;55.15
59190;BME280;50749;51.636;4.948;2023-02-22T13:47:58;101140.88;;;16.97;55.62
59190;BME280;50749;51.636;4.948;2023-02-22T13:50:32;101138.69;;;17.02;55.53
59190;BME280;50749;51.636;4.948;2023-02-22T13:53:13;101139.63;;;17.06;55.37
59190;BME280;50749;51.636;4.948;2023-02-22T13:55:46;101148.16;;;17.14;55.58
59190;BME280;50749;51.636;4.948;2023-02-22T13:58:14;101137.66;;;17.19;55.67
59190;BME280;50749;51.636;4.948;2023-02-22T14:01:00;101138.72;;;17.27;55.21
59190;BME280;50749;51.636;4.948;2023-02-22T14:05:58;101147.78;;;17.40;55.01
59190;BME280;50749;51.636;4.948;2023-02-22T14:10:56;101143.75;;;17.50;54.99
59190;BME280;50749;51.636;4.948;2023-02-22T14:13:26;101151.78;;;17.55;54.63
59190;BME280;50749;51.636;4.948;2023-02-22T14:16:17;101151.56;;;17.60;54.96
59190;BME280;50749;51.636;4.948;2023-02-22T14:18:46;101148.53;;;17.65;54.59
59190;BME280;50749;51.636;4.948;2023-02-22T14:21:18;101154.22;;;17.69;55.21
59190;BME280;50749;51.636;4.948;2023-02-22T14:26:34;101147.38;;;17.78;55.53
59190;BME280;50749;51.636;4.948;2023-02-22T14:29:14;101144.34;;;17.83;55.20
59190;BME280;50749;51.636;4.948;2023-02-22T14:34:10;101141.84;;;17.91;55.94
59190;BME280;50749;51.636;4.948;2023-02-22T14:36:43;101147.13;;;17.96;55.57
59190;BME280;50749;51.636;4.948;2023-02-22T14:39:19;101151.25;;;18.02;55.66
59190;BME280;50749;51.636;4.948;2023-02-22T14:41:59;101152.88;;;18.03;55.25
59190;BME280;50749;51.636;4.948;2023-02-22T14:44:47;101153.78;;;18.07;55.37
59190;BME280;50749;51.636;4.948;2023-02-22T14:47:29;101155.38;;;18.08;54.70
59190;BME280;50749;51.636;4.948;2023-02-22T14:50:04;101154.94;;;18.06;54.44
59190;BME280;50749;51.636;4.948;2023-02-22T14:52:35;101151.38;;;18.06;54.67
59190;BME280;50749;51.636;4.948;2023-02-22T14:55:13;101154.94;;;18.06;55.05
59190;BME280;50749;51.636;4.948;2023-02-22T15:00:43;101157.56;;;18.15;55.27
59190;BME280;50749;51.636;4.948;2023-02-22T15:05:48;101159.00;;;18.25;55.11
59190;BME280;50749;51.636;4.948;2023-02-22T15:08:16;101159.91;;;18.29;54.93
59190;BME280;50749;51.636;4.948;2023-02-22T15:10:45;101161.19;;;18.31;54.99
59190;BME280;50749;51.636;4.948;2023-02-22T15:13:18;101166.00;;;18.34;55.16
59190;BME280;50749;51.636;4.948;2023-02-22T15:15:53;101159.78;;;18.37;54.56
59190;BME280;50749;51.636;4.948;2023-02-22T15:18:43;101164.94;;;18.39;54.91
59190;BME280;50749;51.636;4.948;2023-02-22T15:21:16;101160.66;;;18.42;54.82
59190;BME280;50749;51.636;4.948;2023-02-22T15:28:55;101168.28;;;18.45;54.48
59190;BME280;50749;51.636;4.948;2023-02-22T15:31:33;101179.00;;;18.46;54.33
59190;BME280;50749;51.636;4.948;2023-02-22T15:36:45;101167.22;;;18.49;54.49
59190;BME280;50749;51.636;4.948;2023-02-22T15:42:09;101178.03;;;18.54;54.42
59190;BME280;50749;51.636;4.948;2023-02-22T15:44:45;101166.13;;;18.54;53.91
59190;BME280;50749;51.636;4.948;2023-02-22T15:47:30;101176.84;;;18.55;53.85
59190;BME280;50749;51.636;4.948;2023-02-22T15:50:13;101175.25;;;18.54;53.80